Time;durP1;ratioP1;P1;durP2;ratioP2;P2;SDS_P1;SDS_P2;PMS_P1;PMS_P2;Temp;Humidity;BMP_temperature;BMP_pressure;BME280_temperature;BME280_humidity;BME280_pressure;Samples;Min_cycle;Max_cycle;Signal;HPM_P1;HPM_P2
2024/01/17 00:02:01;;;;;;;54.63;50.75;;;0.30;99.90;;;;;;5004357;28;20037;-78
2024/01/17 00:04:27;;;;;;;46.45;42.92;;;0.00;99.90;;;;;;5010266;28;20053;-78
2024/01/17 00:06:55;;;;;;;49.42;46.03;;;0.00;99.90;;;;;;5005940;28;20117;-78
2024/01/17 00:09:21;;;;;;;46.00;42.58;;;0.70;99.90;;;;;;5003300;28;20062;-78
2024/01/17 00:11:48;;;;;;;78.72;73.05;;;0.10;99.90;;;;;;5005811;28;20061;-78
2024/01/17 00:14:14;;;;;;;48.65;45.15;;;-0.10;99.90;;;;;;5004847;28;20432;-78
2024/01/17 00:16:39;;;;;;;144.10;135.15;;;0.30;99.90;;;;;;5006229;28;20053;-78
2024/01/17 00:19:05;;;;;;;116.60;109.05;;;0.40;99.90;;;;;;5005099;28;20103;-78
2024/01/17 00:21:31;;;;;;;116.10;108.60;;;-0.20;99.90;;;;;;5005140;28;20050;-78
2024/01/17 00:23:57;;;;;;;159.82;149.90;;;0.90;99.90;;;;;;5005822;28;20046;-78
2024/01/17 00:26:23;;;;;;;105.38;98.60;;;1.00;99.90;;;;;;5004423;28;20493;-78
2024/01/17 00:28:50;;;;;;;145.88;136.82;;;0.90;99.90;;;;;;5004171;28;20140;-79
2024/01/17 00:31:15;;;;;;;99.55;93.43;;;0.30;99.90;;;;;;5005747;28;20103;-78
2024/01/17 00:33:41;;;;;;;93.18;87.05;;;1.00;99.90;;;;;;5001987;28;20569;-78
2024/01/17 00:36:08;;;;;;;143.57;134.57;;;0.00;99.90;;;;;;5004158;28;20046;-78
2024/01/17 00:38:34;;;;;;;103.25;96.68;;;-0.30;99.90;;;;;;5005036;28;20050;-78
2024/01/17 00:41:00;;;;;;;87.53;82.03;;;-0.10;99.90;;;;;;5004494;28;20174;-78
2024/01/17 00:43:26;;;;;;;173.82;163.02;;;0.30;99.90;;;;;;5003978;28;20057;-78
2024/01/17 00:45:51;;;;;;;111.18;104.28;;;-0.30;99.90;;;;;;5004844;28;20471;-78
2024/01/17 00:48:18;;;;;;;179.63;168.57;;;0.30;99.90;;;;;;4991432;28;20486;-78
2024/01/17 00:50:44;;;;;;;141.48;132.35;;;0.80;99.90;;;;;;4993579;28;20092;-78
2024/01/17 00:53:10;;;;;;;87.63;82.28;;;0.60;99.90;;;;;;5000880;28;20075;-78
2024/01/17 00:55:36;;;;;;;95.75;89.78;;;0.30;99.90;;;;;;4978408;28;20100;-78
2024/01/17 00:58:01;;;;;;;112.68;105.53;;;-0.30;99.90;;;;;;4997027;28;20054;-78
2024/01/17 01:00:27;;;;;;;110.13;103.05;;;-0.30;99.90;;;;;;4984083;28;20047;-78
2024/01/17 01:02:53;;;;;;;78.50;73.55;;;-0.30;99.90;;;;;;4984438;28;20058;-78
2024/01/17 01:05:19;;;;;;;156.50;146.63;;;0.50;99.90;;;;;;5017381;28;20046;-78
2024/01/17 01:07:44;;;;;;;106.75;99.47;;;0.90;99.90;;;;;;4992130;28;20057;-78
2024/01/17 01:10:10;;;;;;;63.33;59.05;;;0.90;99.90;;;;;;5000137;28;20038;-78
2024/01/17 01:12:37;;;;;;;170.05;158.90;;;0.60;99.90;;;;;;5004781;28;20473;-78
2024/01/17 01:15:04;;;;;;;96.03;89.53;;;0.70;99.90;;;;;;4990871;28;20507;-78
2024/01/17 01:17:30;;;;;;;97.93;91.32;;;-0.20;99.90;;;;;;5004172;28;20397;-78
2024/01/17 01:19:56;;;;;;;108.47;100.88;;;0.60;99.90;;;;;;4989371;28;20129;-78
2024/01/17 01:22:22;;;;;;;118.07;110.47;;;-0.20;99.90;;;;;;4986007;28;20221;-78
2024/01/17 01:24:48;;;;;;;87.15;81.38;;;1.10;99.90;;;;;;4944382;28;1113503;-78
2024/01/17 01:27:14;;;;;;;153.13;143.05;;;0.40;99.90;;;;;;4987500;28;20061;-78
2024/01/17 01:29:40;;;;;;;128.43;120.45;;;0.50;99.90;;;;;;4985779;28;20508;-79
2024/01/17 01:32:07;;;;;;;121.60;114.13;;;1.10;99.90;;;;;;4987459;28;20343;-78
2024/01/17 01:34:33;;;;;;;162.75;151.55;;;1.10;99.90;;;;;;4987100;28;20068;-78
2024/01/17 01:37:00;;;;;;;111.22;103.82;;;1.00;99.90;;;;;;4986064;28;20092;-78
2024/01/17 01:39:26;;;;;;;101.50;94.85;;;0.70;99.90;;;;;;4985859;28;20060;-78
2024/01/17 01:41:52;;;;;;;115.15;107.65;;;-0.10;99.90;;;;;;4985444;28;20092;-78
2024/01/17 01:44:17;;;;;;;131.80;123.53;;;-0.10;99.90;;;;;;4968804;28;20042;-78
2024/01/17 01:46:45;;;;;;;112.13;104.75;;;0.70;99.90;;;;;;5001825;28;20050;-78
2024/01/17 01:49:14;;;;;;;114.95;107.53;;;1.00;99.90;;;;;;4992054;28;20049;-78
2024/01/17 01:51:44;;;;;;;70.90;66.13;;;-0.20;99.90;;;;;;5004555;28;20668;-78
2024/01/17 01:54:11;;;;;;;66.78;62.22;;;0.80;99.90;;;;;;4979406;28;20050;-78
2024/01/17 01:56:38;;;;;;;57.63;53.58;;;0.80;99.90;;;;;;5003248;28;20110;-78
2024/01/17 01:59:06;;;;;;;66.90;62.13;;;0.80;99.90;;;;;;5028832;28;20050;-78
2024/01/17 02:01:32;;;;;;;245.20;230.07;;;1.30;99.90;;;;;;4987370;28;20050;-78
2024/01/17 02:04:00;;;;;;;168.65;157.13;;;0.60;99.90;;;;;;4994704;28;20500;-78
2024/01/17 02:06:30;;;;;;;241.32;226.48;;;0.90;99.90;;;;;;5004501;28;20091;-78
2024/01/17 02:08:57;;;;;;;231.68;217.25;;;0.70;99.90;;;;;;5002704;28;20057;-78
2024/01/17 02:11:23;;;;;;;284.67;266.67;;;1.10;99.90;;;;;;5003967;28;20079;-78
2024/01/17 02:13:49;;;;;;;263.58;247.43;;;-0.10;99.90;;;;;;5028440;28;20058;-78
2024/01/17 02:16:15;;;;;;;322.83;301.63;;;1.00;99.90;;;;;;5000899;28;20049;-78
2024/01/17 02:18:43;;;;;;;290.30;271.10;;;-0.20;99.90;;;;;;4984402;28;20467;-78
2024/01/17 02:21:11;;;;;;;344.58;322.38;;;1.00;99.90;;;;;;4968790;28;20046;-78
2024/01/17 02:23:37;;;;;;;375.15;350.38;;;0.60;99.90;;;;;;4973061;28;20030;-78
2024/01/17 02:26:02;;;;;;;374.70;349.83;;;0.40;99.90;;;;;;5000254;28;20872;-78
2024/01/17 02:28:30;;;;;;;308.42;289.10;;;-0.30;99.90;;;;;;4984711;28;20050;-78
2024/01/17 02:30:57;;;;;;;419.80;391.05;;;0.70;99.90;;;;;;4985119;28;20570;-78
2024/01/17 02:33:23;;;;;;;280.67;262.90;;;0.30;99.90;;;;;;4985470;28;20043;-78
2024/01/17 02:35:49;;;;;;;410.33;381.05;;;0.40;99.90;;;;;;4987002;28;20039;-78
2024/01/17 02:38:15;;;;;;;335.95;314.90;;;0.40;99.90;;;;;;4983748;28;20134;-78
2024/01/17 02:40:40;;;;;;;415.65;388.17;;;-0.40;99.90;;;;;;4992040;28;20046;-78
2024/01/17 02:43:06;;;;;;;416.67;387.45;;;0.10;99.90;;;;;;5004718;28;20042;-78
2024/01/17 02:45:32;;;;;;;413.08;384.88;;;1.00;99.90;;;;;;5003394;28;20064;-78
2024/01/17 02:47:58;;;;;;;342.13;319.90;;;0.40;99.90;;;;;;4993951;28;20508;-78
2024/01/17 02:50:24;;;;;;;381.58;356.55;;;0.10;99.90;;;;;;5000734;28;20050;-78
2024/01/17 02:52:52;;;;;;;333.13;311.52;;;0.30;99.90;;;;;;5002072;28;20045;-78
2024/01/17 02:55:19;;;;;;;399.42;372.98;;;0.90;99.90;;;;;;5000143;28;20043;-78
2024/01/17 02:57:45;;;;;;;379.27;353.83;;;-0.10;99.90;;;;;;5004117;28;20943;-78
2024/01/17 03:00:11;;;;;;;303.92;284.45;;;0.50;99.90;;;;;;5002106;28;20063;-78
2024/01/17 03:02:37;;;;;;;326.02;304.80;;;-0.50;99.90;;;;;;5002247;28;20057;-78
2024/01/17 03:05:04;;;;;;;350.95;328.60;;;0.60;99.90;;;;;;5002052;28;20042;-78
2024/01/17 03:07:30;;;;;;;395.38;369.42;;;-0.50;99.90;;;;;;5003635;28;20050;-78
2024/01/17 03:09:56;;;;;;;368.02;344.42;;;-0.50;99.90;;;;;;5000917;28;20137;-78
2024/01/17 03:12:22;;;;;;;324.65;304.27;;;0.50;99.90;;;;;;5003587;28;20136;-78
2024/01/17 03:14:47;;;;;;;386.50;360.85;;;0.70;99.90;;;;;;5004701;28;20046;-78
2024/01/17 03:17:13;;;;;;;359.75;336.83;;;0.20;99.90;;;;;;4970160;28;20728;-78
2024/01/17 03:19:39;;;;;;;399.67;373.00;;;0.80;99.90;;;;;;4985267;28;20047;-78
2024/01/17 03:22:05;;;;;;;362.20;339.65;;;0.60;99.90;;;;;;5019660;28;20058;-78
2024/01/17 03:24:30;;;;;;;429.00;400.13;;;0.50;99.90;;;;;;5001603;28;20050;-78
2024/01/17 03:26:56;;;;;;;411.70;383.95;;;0.00;99.90;;;;;;5003294;28;20079;-78
2024/01/17 03:29:22;;;;;;;389.63;364.17;;;0.10;99.90;;;;;;4992738;28;20114;-78
2024/01/17 03:31:48;;;;;;;377.50;353.52;;;0.50;99.90;;;;;;5001432;28;20102;-78
2024/01/17 03:34:14;;;;;;;338.75;317.38;;;0.60;99.90;;;;;;5002771;28;20497;-78
2024/01/17 03:36:39;;;;;;;361.60;337.83;;;-0.20;99.90;;;;;;5001420;28;20046;-78
2024/01/17 03:39:06;;;;;;;459.85;428.45;;;-0.60;99.90;;;;;;5002650;28;20042;-78
2024/01/17 03:41:31;;;;;;;450.25;419.75;;;0.20;99.90;;;;;;5009915;28;20125;-78
2024/01/17 03:43:57;;;;;;;437.90;408.30;;;-0.50;99.90;;;;;;5002349;28;20175;-78
2024/01/17 03:46:24;;;;;;;508.55;472.15;;;0.40;99.90;;;;;;5002310;28;20052;-78
2024/01/17 03:48:50;;;;;;;362.48;339.08;;;0.50;99.90;;;;;;4986169;28;20038;-78
2024/01/17 03:51:16;;;;;;;465.00;433.90;;;0.10;99.90;;;;;;4995151;28;20050;-78
2024/01/17 03:53:42;;;;;;;427.80;399.45;;;0.50;99.90;;;;;;4970882;28;20108;-78
2024/01/17 03:56:08;;;;;;;525.55;488.40;;;0.50;99.90;;;;;;4990581;28;20038;-78
2024/01/17 03:58:33;;;;;;;483.88;450.13;;;-0.80;99.90;;;;;;5001919;28;20050;-78
2024/01/17 04:01:01;;;;;;;486.38;452.23;;;0.30;99.90;;;;;;5003384;28;20113;-78
2024/01/17 04:03:27;;;;;;;457.15;425.80;;;-0.10;99.90;;;;;;5003658;28;20397;-78
2024/01/17 04:05:52;;;;;;;517.10;480.85;;;-0.10;99.90;;;;;;4984974;28;20044;-78
2024/01/17 04:08:19;;;;;;;528.17;490.35;;;-0.70;99.90;;;;;;5003048;28;20044;-78
2024/01/17 04:10:44;;;;;;;462.92;432.00;;;-0.80;99.90;;;;;;5004440;28;20382;-78
2024/01/17 04:13:10;;;;;;;455.60;425.30;;;0.30;99.90;;;;;;5000363;28;20087;-78
2024/01/17 04:15:36;;;;;;;433.58;405.13;;;-0.80;99.90;;;;;;4994474;28;20107;-78
2024/01/17 04:18:02;;;;;;;421.98;394.02;;;0.10;99.90;;;;;;4987634;28;20074;-78
2024/01/17 04:20:27;;;;;;;421.73;393.67;;;-0.90;99.90;;;;;;4985281;28;20089;-78
2024/01/17 04:22:53;;;;;;;390.20;364.73;;;0.00;99.90;;;;;;5003543;28;20301;-78
2024/01/17 04:25:19;;;;;;;462.65;430.77;;;-0.20;99.90;;;;;;5005863;28;20501;-78
2024/01/17 04:27:45;;;;;;;428.75;400.88;;;-0.60;99.90;;;;;;5006920;28;20049;-79
2024/01/17 04:30:12;;;;;;;488.02;453.58;;;-0.20;99.90;;;;;;5004921;28;20362;-78
2024/01/17 04:32:37;;;;;;;467.38;435.45;;;-1.00;99.90;;;;;;5004615;28;20042;-78
2024/01/17 04:35:04;;;;;;;522.35;484.98;;;-0.40;99.90;;;;;;5006145;28;20501;-78
2024/01/17 04:37:30;;;;;;;476.15;443.27;;;-1.00;99.90;;;;;;5005015;28;20060;-79
2024/01/17 04:39:57;;;;;;;504.90;469.30;;;-0.90;99.90;;;;;;4969445;28;20493;-78
2024/01/17 04:42:23;;;;;;;531.45;493.85;;;0.20;99.90;;;;;;4985519;28;20533;-78
2024/01/17 04:44:49;;;;;;;528.35;491.13;;;-0.70;99.90;;;;;;5004441;28;20095;-78
2024/01/17 04:47:15;;;;;;;536.20;498.27;;;0.00;99.90;;;;;;4989004;28;20050;-78
2024/01/17 04:49:42;;;;;;;515.03;478.85;;;0.20;99.90;;;;;;4994984;28;20046;-78
2024/01/17 04:52:09;;;;;;;492.63;458.60;;;-0.90;99.90;;;;;;5006787;28;20050;-78
2024/01/17 04:54:35;;;;;;;492.63;458.58;;;-0.40;99.90;;;;;;5003214;28;20093;-78
2024/01/17 04:57:01;;;;;;;471.02;438.55;;;0.00;99.90;;;;;;4995447;28;20088;-78
2024/01/17 04:59:27;;;;;;;407.10;379.92;;;0.00;99.90;;;;;;4992401;28;20054;-78
2024/01/17 05:01:53;;;;;;;533.83;494.55;;;-0.50;99.90;;;;;;4985937;28;20514;-78
2024/01/17 05:04:18;;;;;;;540.33;501.52;;;0.00;99.90;;;;;;4988405;28;20085;-78
2024/01/17 05:06:45;;;;;;;460.02;428.48;;;0.30;99.90;;;;;;4986175;28;20096;-78
2024/01/17 05:09:11;;;;;;;440.23;411.02;;;-0.60;99.90;;;;;;4985488;28;20512;-78
2024/01/17 05:11:37;;;;;;;503.70;468.27;;;0.30;99.90;;;;;;4988108;28;20046;-78
2024/01/17 05:14:03;;;;;;;510.73;474.77;;;0.00;99.90;;;;;;4987746;28;20042;-78
2024/01/17 05:16:29;;;;;;;546.35;506.98;;;0.30;99.90;;;;;;4987164;28;20434;-78
2024/01/17 05:18:55;;;;;;;458.95;427.92;;;-0.40;99.90;;;;;;4988371;28;20512;-78
2024/01/17 05:21:21;;;;;;;513.13;477.15;;;0.20;99.90;;;;;;4986503;28;20034;-78
2024/01/17 05:23:47;;;;;;;587.38;544.25;;;-1.00;99.90;;;;;;4985009;28;20042;-78
2024/01/17 05:26:12;;;;;;;466.20;434.30;;;-0.20;99.90;;;;;;4986281;28;20141;-78
2024/01/17 05:28:38;;;;;;;535.85;498.50;;;-0.40;99.90;;;;;;4984815;28;20061;-78
2024/01/17 05:31:04;;;;;;;578.92;536.67;;;-0.10;99.90;;;;;;4968302;28;20050;-78
2024/01/17 05:33:30;;;;;;;486.92;453.60;;;-0.30;99.90;;;;;;4994354;28;20108;-78
2024/01/17 05:35:56;;;;;;;616.17;568.35;;;0.20;99.90;;;;;;4990803;28;20203;-78
2024/01/17 05:38:22;;;;;;;485.95;452.38;;;-0.50;99.90;;;;;;4984356;28;20130;-78
2024/01/17 05:40:47;;;;;;;545.90;506.30;;;-0.10;99.90;;;;;;4986968;28;20046;-78
2024/01/17 05:43:13;;;;;;;516.88;480.10;;;-0.20;99.90;;;;;;4984590;28;20441;-78
2024/01/17 05:45:39;;;;;;;586.35;543.47;;;-0.50;99.90;;;;;;4985950;28;20489;-78
2024/01/17 05:48:05;;;;;;;540.75;502.75;;;-0.70;99.90;;;;;;4986750;28;20046;-78
2024/01/17 05:50:31;;;;;;;640.38;590.85;;;-1.10;99.90;;;;;;4984076;28;20080;-78
2024/01/17 05:52:56;;;;;;;591.28;547.67;;;0.10;99.90;;;;;;4984687;28;20085;-78
2024/01/17 05:55:22;;;;;;;504.70;469.77;;;-1.20;99.90;;;;;;5001226;28;20038;-78
2024/01/17 05:57:50;;;;;;;465.50;433.80;;;-0.20;99.90;;;;;;4994281;28;20064;-78
2024/01/17 06:00:18;;;;;;;417.38;389.80;;;0.00;99.90;;;;;;4996250;28;20513;-78
2024/01/17 06:02:44;;;;;;;502.20;468.23;;;-1.20;99.90;;;;;;4985281;28;20058;-78
2024/01/17 06:05:10;;;;;;;453.73;423.33;;;-0.70;99.90;;;;;;4996862;28;20048;-78
2024/01/17 06:07:37;;;;;;;438.13;407.98;;;-1.30;99.90;;;;;;4991940;28;20046;-78
2024/01/17 06:10:03;;;;;;;444.38;413.92;;;-0.50;99.90;;;;;;5003576;28;20508;-78
2024/01/17 06:12:28;;;;;;;438.75;409.17;;;-1.30;99.90;;;;;;5003718;28;20042;-78
2024/01/17 06:14:54;;;;;;;427.20;399.02;;;-1.40;99.90;;;;;;4985245;28;20406;-78
2024/01/17 06:17:20;;;;;;;442.85;413.63;;;-0.40;99.90;;;;;;4984523;28;20046;-78
2024/01/17 06:19:46;;;;;;;433.50;404.35;;;-0.50;99.90;;;;;;5004039;28;20107;-78
2024/01/17 06:22:12;;;;;;;442.10;412.35;;;-0.90;99.90;;;;;;5003877;28;20522;-78
2024/01/17 06:24:37;;;;;;;503.52;468.92;;;-0.90;99.90;;;;;;5003532;28;20442;-78
2024/01/17 06:27:03;;;;;;;465.33;433.50;;;-0.60;99.90;;;;;;5036369;28;20138;-78
2024/01/17 06:29:30;;;;;;;500.55;466.27;;;-1.40;99.90;;;;;;4974137;28;20050;-78
2024/01/17 06:31:57;;;;;;;506.10;471.77;;;-0.30;99.90;;;;;;4985472;28;20042;-78
2024/01/17 06:34:23;;;;;;;451.15;421.02;;;-0.70;99.90;;;;;;4990831;28;20048;-78
2024/01/17 06:36:48;;;;;;;563.72;522.78;;;-0.40;99.90;;;;;;4997277;28;20042;-78
2024/01/17 06:39:17;;;;;;;531.63;493.50;;;-1.50;99.90;;;;;;5000778;28;20156;-78
2024/01/17 06:41:44;;;;;;;564.92;524.50;;;-0.80;99.90;;;;;;5002481;28;20041;-78
2024/01/17 06:44:10;;;;;;;495.33;459.67;;;-1.30;99.90;;;;;;5004593;28;20060;-78
2024/01/17 06:46:37;;;;;;;513.75;477.60;;;-1.50;99.90;;;;;;5001334;28;20568;-78
2024/01/17 06:49:03;;;;;;;492.60;459.45;;;-0.90;99.90;;;;;;4992103;28;20423;-78
2024/01/17 06:51:28;;;;;;;584.15;540.72;;;-1.30;99.90;;;;;;5002956;28;20053;-78
2024/01/17 06:53:54;;;;;;;661.72;611.65;;;-0.30;99.90;;;;;;5033096;28;20068;-78
2024/01/17 06:56:20;;;;;;;519.22;483.42;;;-1.50;99.90;;;;;;4998947;28;20053;-78
2024/01/17 06:58:45;;;;;;;590.53;547.85;;;-1.60;99.90;;;;;;4970934;28;20111;-78
2024/01/17 07:01:11;;;;;;;489.55;455.00;;;-1.20;99.90;;;;;;4966952;28;20049;-78
2024/01/17 07:03:37;;;;;;;607.25;561.92;;;-0.50;99.90;;;;;;4970071;28;20047;-78
2024/01/17 07:06:05;;;;;;;611.00;565.85;;;-1.10;99.90;;;;;;4966445;28;20054;-78
2024/01/17 07:08:31;;;;;;;486.75;452.35;;;-1.60;99.90;;;;;;4967147;28;20047;-78
2024/01/17 07:10:56;;;;;;;487.10;453.65;;;-1.30;99.90;;;;;;4965410;28;20051;-78
2024/01/17 07:13:22;;;;;;;448.92;418.00;;;-1.10;99.90;;;;;;4965629;28;20402;-78
2024/01/17 07:15:48;;;;;;;525.45;488.50;;;-0.70;99.90;;;;;;4965662;28;20073;-78
2024/01/17 07:18:13;;;;;;;494.35;460.17;;;-1.00;99.90;;;;;;4964350;28;20502;-78
2024/01/17 07:20:39;;;;;;;668.10;617.13;;;-1.00;99.90;;;;;;4964058;28;20100;-78
2024/01/17 07:23:06;;;;;;;518.50;481.35;;;-1.60;99.90;;;;;;4998624;28;20520;-78
2024/01/17 07:25:32;;;;;;;492.52;457.17;;;-1.70;99.90;;;;;;5001405;28;20100;-78
2024/01/17 07:27:59;;;;;;;547.25;508.05;;;-0.60;99.90;;;;;;5003242;28;20493;-77
2024/01/17 07:30:26;;;;;;;673.13;620.17;;;-1.70;99.90;;;;;;4989120;28;20070;-78
2024/01/17 07:32:51;;;;;;;509.67;473.65;;;-0.80;99.90;;;;;;4997257;28;20380;-78
2024/01/17 07:35:17;;;;;;;555.10;514.40;;;-1.70;99.90;;;;;;4970812;28;20100;-78
2024/01/17 07:37:43;;;;;;;660.70;610.25;;;-1.20;99.90;;;;;;5018355;28;20050;-78
2024/01/17 07:40:10;;;;;;;641.70;593.58;;;-0.20;99.90;;;;;;4985236;28;20046;-78
2024/01/17 07:42:36;;;;;;;686.38;634.03;;;-1.70;99.90;;;;;;4986820;28;20130;-79
2024/01/17 07:45:02;;;;;;;609.40;564.05;;;-1.00;99.90;;;;;;4986094;28;20131;-77
2024/01/17 07:47:28;;;;;;;632.70;585.13;;;-1.80;99.90;;;;;;4965144;28;20061;-77
2024/01/17 07:49:55;;;;;;;611.53;566.50;;;-1.10;99.90;;;;;;4988614;28;20031;-78
2024/01/17 07:52:20;;;;;;;635.17;586.92;;;-0.30;99.90;;;;;;4990133;28;20057;-78
2024/01/17 07:54:46;;;;;;;671.85;620.67;;;-1.80;99.90;;;;;;4988112;28;20043;-78
2024/01/17 07:57:12;;;;;;;497.65;463.42;;;-0.90;99.90;;;;;;4995517;28;20054;-77
2024/01/17 07:59:38;;;;;;;498.80;464.20;;;-1.80;99.90;;;;;;5001127;28;20132;-78
2024/01/17 08:02:04;;;;;;;486.02;453.27;;;-1.50;99.90;;;;;;5003179;28;20054;-77
2024/01/17 08:04:30;;;;;;;618.03;572.20;;;-1.90;99.90;;;;;;4990319;28;20162;-79
2024/01/17 08:06:56;;;;;;;545.40;505.85;;;-1.20;99.90;;;;;;5005014;28;20050;-79
2024/01/17 08:09:23;;;;;;;529.55;491.80;;;-0.70;99.90;;;;;;4997930;28;20038;-79
2024/01/17 08:11:52;;;;;;;409.00;382.10;;;-1.00;99.90;;;;;;4993788;28;20069;-79
2024/01/17 08:14:18;;;;;;;481.35;447.52;;;-1.10;99.90;;;;;;5000422;28;20041;-79
2024/01/17 08:16:44;;;;;;;537.35;498.38;;;-0.80;99.90;;;;;;5002637;28;20042;-79
2024/01/17 08:19:10;;;;;;;460.80;428.60;;;-1.90;99.90;;;;;;5015827;28;20583;-78
2024/01/17 08:21:36;;;;;;;335.13;313.13;;;-1.40;99.90;;;;;;5002128;28;20125;-78
2024/01/17 08:24:02;;;;;;;528.05;489.75;;;-1.30;99.90;;;;;;5001501;28;20051;-79
2024/01/17 08:26:28;;;;;;;497.05;461.80;;;-1.80;99.90;;;;;;5003181;28;20062;-78
2024/01/17 08:28:54;;;;;;;369.88;345.88;;;-1.80;99.90;;;;;;5001025;28;20735;-79
2024/01/17 08:31:20;;;;;;;433.75;403.77;;;-0.50;99.90;;;;;;4997232;28;20081;-78
2024/01/17 08:33:46;;;;;;;392.48;366.55;;;-0.50;99.90;;;;;;4984984;28;20543;-79
2024/01/17 08:36:14;;;;;;;388.25;362.65;;;-1.00;99.90;;;;;;4993922;28;20149;-81
2024/01/17 08:38:40;;;;;;;435.83;407.27;;;-1.80;99.90;;;;;;4996331;28;20158;-78
2024/01/17 08:41:06;;;;;;;597.10;553.60;;;-0.70;99.90;;;;;;5001633;28;20125;-79
2024/01/17 08:43:32;;;;;;;399.75;373.77;;;-1.00;99.90;;;;;;4996347;28;20161;-79
2024/01/17 08:45:57;;;;;;;488.90;454.77;;;-1.80;99.90;;;;;;4999994;28;20100;-79
2024/01/17 08:48:23;;;;;;;383.30;357.83;;;-0.70;99.90;;;;;;4968658;28;20104;-79
2024/01/17 08:50:49;;;;;;;553.85;513.85;;;-0.70;99.90;;;;;;4997939;28;20050;-79
2024/01/17 08:53:15;;;;;;;463.02;431.63;;;-1.80;99.90;;;;;;5016681;28;20054;-78
2024/01/17 08:55:41;;;;;;;371.70;347.25;;;-1.00;99.90;;;;;;4985753;28;20379;-78
2024/01/17 08:58:06;;;;;;;543.40;504.00;;;-0.90;99.90;;;;;;4990455;28;20190;-79
2024/01/17 09:00:32;;;;;;;519.08;482.05;;;-0.40;99.90;;;;;;5004376;28;20038;-78
2024/01/17 09:02:58;;;;;;;402.08;375.83;;;-0.30;99.90;;;;;;5004140;28;20457;-78
2024/01/17 09:05:24;;;;;;;437.33;407.58;;;-1.60;99.90;;;;;;5005927;28;20052;-79
2024/01/17 09:07:50;;;;;;;528.95;491.08;;;-0.30;99.90;;;;;;5003233;28;20129;-79
2024/01/17 09:10:17;;;;;;;332.42;310.63;;;-0.20;99.90;;;;;;4990489;28;20130;-79
2024/01/17 09:12:44;;;;;;;338.63;316.90;;;-1.10;99.90;;;;;;4985566;28;20050;-79
2024/01/17 09:15:10;;;;;;;309.08;289.10;;;-0.60;99.90;;;;;;4968233;28;20050;-79
2024/01/17 09:17:36;;;;;;;359.20;336.70;;;-0.30;99.90;;;;;;4985313;28;20141;-78
2024/01/17 09:20:03;;;;;;;327.50;306.73;;;-1.40;99.90;;;;;;4990058;28;20038;-79
2024/01/17 09:22:29;;;;;;;312.48;292.45;;;-1.30;99.90;;;;;;4985563;28;20049;-79
2024/01/17 09:24:55;;;;;;;294.92;276.42;;;-0.60;99.90;;;;;;4984807;28;20670;-80
2024/01/17 09:27:20;;;;;;;319.05;298.80;;;-1.20;99.90;;;;;;5030866;28;20061;-78
2024/01/17 09:29:47;;;;;;;298.60;279.88;;;-1.20;99.90;;;;;;4993973;28;20050;-79
2024/01/17 09:32:13;;;;;;;293.83;275.50;;;-0.60;99.90;;;;;;5003987;28;20054;-78
2024/01/17 09:34:41;;;;;;;267.30;250.50;;;-0.20;99.90;;;;;;5004279;28;20129;-79
2024/01/17 09:37:06;;;;;;;299.33;280.63;;;-0.20;99.90;;;;;;5023206;28;20042;-79
2024/01/17 09:39:32;;;;;;;257.70;241.82;;;-1.10;99.90;;;;;;5002170;28;20064;-79
2024/01/17 09:41:59;;;;;;;322.40;302.23;;;0.20;99.90;;;;;;5003777;28;20118;-79
2024/01/17 09:44:26;;;;;;;281.92;264.23;;;-1.10;99.90;;;;;;5004809;28;20054;-79
2024/01/17 09:46:52;;;;;;;261.20;244.73;;;-1.00;99.90;;;;;;5004244;28;20216;-79
2024/01/17 09:49:18;;;;;;;265.02;248.07;;;0.30;99.90;;;;;;4992287;28;20125;-79
2024/01/17 09:51:44;;;;;;;280.40;262.73;;;-0.30;99.90;;;;;;4992410;28;20084;-79
2024/01/17 09:54:11;;;;;;;229.32;214.98;;;0.00;99.90;;;;;;4992194;28;20037;-79
2024/01/17 09:56:40;;;;;;;299.48;280.17;;;-1.00;99.90;;;;;;5005001;28;20390;-78
2024/01/17 09:59:14;;;;;;;304.73;285.65;;;-0.20;99.90;;;;;;4989988;28;20054;-79
2024/01/17 10:01:41;;;;;;;281.70;263.80;;;0.10;99.90;;;;;;4997459;28;20042;-78
2024/01/17 10:04:08;;;;;;;281.65;264.17;;;-0.80;99.90;;;;;;4984345;28;20516;-79
2024/01/17 10:06:36;;;;;;;303.35;284.20;;;0.50;99.90;;;;;;4984607;28;20042;-79
2024/01/17 10:09:02;;;;;;;268.20;251.00;;;0.00;99.90;;;;;;4984415;28;20058;-79
2024/01/17 10:11:28;;;;;;;223.27;209.30;;;0.40;99.90;;;;;;4983746;28;20512;-79
2024/01/17 10:13:54;;;;;;;215.90;202.45;;;0.50;99.90;;;;;;4986234;28;20124;-80
2024/01/17 10:16:20;;;;;;;260.52;244.20;;;0.00;99.90;;;;;;4984779;28;20376;-79
2024/01/17 10:18:46;;;;;;;218.32;204.98;;;-0.70;99.90;;;;;;5000022;28;20050;-79
2024/01/17 10:21:12;;;;;;;254.77;238.75;;;-0.70;99.90;;;;;;4996995;28;20505;-79
2024/01/17 10:23:38;;;;;;;232.40;217.65;;;0.30;99.90;;;;;;4995849;28;20072;-79
2024/01/17 10:26:04;;;;;;;151.60;141.73;;;0.60;99.90;;;;;;4997511;28;20503;-79
2024/01/17 10:28:33;;;;;;;167.43;156.32;;;-0.10;99.90;;;;;;5001302;28;20049;-79
2024/01/17 10:31:02;;;;;;;127.80;119.43;;;-0.20;99.90;;;;;;5003906;28;20058;-79
2024/01/17 10:33:27;;;;;;;134.68;125.97;;;0.20;99.90;;;;;;5004003;28;20056;-79
2024/01/17 10:35:53;;;;;;;146.05;136.65;;;0.40;99.90;;;;;;4993134;28;20398;-79
2024/01/17 10:38:20;;;;;;;128.05;119.72;;;0.40;99.90;;;;;;5001441;28;20046;-79
2024/01/17 10:40:46;;;;;;;219.60;205.98;;;-0.60;99.90;;;;;;5002990;28;20049;-79
2024/01/17 10:43:13;;;;;;;158.70;148.70;;;-0.60;99.90;;;;;;5002265;28;20190;-79
2024/01/17 10:45:40;;;;;;;124.40;116.32;;;0.50;99.90;;;;;;5002388;28;20057;-79
2024/01/17 10:48:06;;;;;;;136.88;127.93;;;0.30;99.90;;;;;;4993604;28;20378;-79
2024/01/17 10:50:33;;;;;;;138.60;129.63;;;-0.50;99.90;;;;;;4999979;28;20053;-79
2024/01/17 10:53:08;;;;;;;119.93;111.78;;;-0.50;99.90;;;;;;5001169;28;20046;-78
2024/01/17 10:55:36;;;;;;;202.95;189.63;;;-0.40;99.90;;;;;;4990851;28;20045;-79
2024/01/17 10:58:09;;;;;;;181.35;169.77;;;-0.40;99.90;;;;;;4991877;28;20068;-79
2024/01/17 11:00:38;;;;;;;116.13;108.75;;;-0.20;99.90;;;;;;5001952;28;20136;-79
2024/01/17 11:03:08;;;;;;;119.70;111.70;;;-0.30;99.90;;;;;;4991128;28;20061;-79
2024/01/17 11:05:42;;;;;;;138.07;129.25;;;0.50;99.90;;;;;;4983311;28;20042;-79
2024/01/17 11:08:09;;;;;;;130.02;121.43;;;-0.20;99.90;;;;;;4966236;28;20080;-79
2024/01/17 11:10:35;;;;;;;158.00;147.80;;;0.50;99.90;;;;;;4990138;28;20038;-79
2024/01/17 11:13:03;;;;;;;117.00;109.70;;;0.40;99.90;;;;;;5003196;28;20053;-79
2024/01/17 11:15:30;;;;;;;89.95;83.95;;;-0.10;99.90;;;;;;4996038;28;20050;-78
2024/01/17 11:17:59;;;;;;;72.75;67.70;;;0.10;99.90;;;;;;4967668;28;20066;-78
2024/01/17 11:20:25;;;;;;;87.80;81.90;;;0.80;99.90;;;;;;4982810;28;20433;-78
2024/01/17 11:22:53;;;;;;;100.53;93.85;;;-0.10;99.90;;;;;;4994221;28;20042;-78
2024/01/17 11:25:27;;;;;;;101.75;94.88;;;0.20;99.90;;;;;;4977983;28;20485;-78
2024/01/17 11:28:06;;;;;;;96.43;90.30;;;-0.20;99.90;;;;;;5002505;28;20038;-78
2024/01/17 11:30:43;;;;;;;98.55;92.18;;;0.20;99.90;;;;;;4999525;28;20046;-79
2024/01/17 11:33:12;;;;;;;93.85;87.68;;;0.50;99.90;;;;;;4992972;28;20129;-78
2024/01/17 11:35:39;;;;;;;114.28;106.68;;;0.50;99.90;;;;;;4979357;28;20135;-79
2024/01/17 11:38:10;;;;;;;121.05;113.25;;;0.70;99.90;;;;;;5017543;28;20046;-78
2024/01/17 11:40:37;;;;;;;81.22;75.72;;;0.30;99.90;;;;;;4999248;28;20407;-79
2024/01/17 11:43:03;;;;;;;109.57;102.10;;;-0.30;99.90;;;;;;5006577;28;20037;-79
2024/01/17 11:45:29;;;;;;;108.13;100.40;;;-0.30;99.90;;;;;;5002063;28;20054;-78
2024/01/17 11:47:56;;;;;;;85.05;79.28;;;0.50;99.90;;;;;;4985916;28;20156;-79
2024/01/17 11:50:23;;;;;;;104.70;97.88;;;-0.30;99.90;;;;;;5033155;28;20064;-79
2024/01/17 11:52:52;;;;;;;94.32;88.20;;;0.20;99.90;;;;;;5023355;27;20437;-79
2024/01/17 11:55:17;;;;;;;123.68;115.75;;;0.60;99.90;;;;;;4986806;28;20069;-79
2024/01/17 11:57:44;;;;;;;103.28;96.65;;;0.30;99.90;;;;;;4986080;28;20045;-78
2024/01/17 12:00:12;;;;;;;129.07;120.93;;;0.80;99.90;;;;;;4982293;28;20042;-80
2024/01/17 12:02:41;;;;;;;158.07;148.05;;;-0.40;99.90;;;;;;4992899;28;20051;-78
2024/01/17 12:05:08;;;;;;;101.40;94.57;;;0.70;99.90;;;;;;4979632;28;20042;-79
2024/01/17 12:07:38;;;;;;;77.07;71.63;;;-0.20;99.90;;;;;;4980948;28;20396;-79
2024/01/17 12:10:09;;;;;;;141.13;132.35;;;-0.30;99.90;;;;;;4989905;28;20041;-78